createdAt,value
2022-12-20T00:01:42.376Z,7.20
2022-12-20T00:04:12.955Z,7.20
2022-12-20T00:06:41.819Z,7.20
2022-12-20T00:09:12.016Z,7.20
2022-12-20T00:11:41.366Z,7.10
2022-12-20T00:14:10.499Z,7.10
2022-12-20T00:16:39.185Z,7.10
2022-12-20T00:19:08.312Z,7.10
2022-12-20T00:21:37.585Z,7.10
2022-12-20T00:24:07.342Z,7.10
2022-12-20T00:26:36.818Z,7.10
2022-12-20T00:29:06.051Z,7.10
2022-12-20T00:31:33.915Z,7.10
2022-12-20T00:34:01.986Z,7.10
2022-12-20T00:36:31.920Z,7.20
2022-12-20T00:39:00.873Z,7.20
2022-12-20T00:41:31.685Z,7.20
2022-12-20T00:46:51.151Z,7.20
2022-12-20T00:49:18.827Z,7.20
2022-12-20T00:51:46.420Z,7.10
2022-12-20T00:54:14.161Z,7.10
2022-12-20T00:56:42.456Z,7.10
2022-12-20T00:59:10.196Z,7.10
2022-12-20T01:01:37.980Z,7.10
2022-12-20T01:04:19.121Z,7.10
2022-12-20T01:06:47.392Z,7.10
2022-12-20T01:09:15.507Z,7.10
2022-12-20T01:11:43.431Z,7.10
2022-12-20T01:14:14.828Z,7.10
2022-12-20T01:16:45.853Z,7.00
2022-12-20T01:19:17.255Z,7.10
2022-12-20T01:21:45.392Z,7.00
2022-12-20T01:24:16.723Z,7.00
2022-12-20T01:26:46.146Z,7.10
2022-12-20T01:29:14.890Z,7.10
2022-12-20T01:31:43.527Z,7.10
2022-12-20T01:34:18.438Z,7.10
2022-12-20T01:36:46.393Z,7.10
2022-12-20T01:39:16.777Z,7.10
2022-12-20T01:41:46.242Z,7.10
2022-12-20T01:44:26.315Z,7.20
2022-12-20T01:46:55.484Z,7.20
2022-12-20T01:49:27.025Z,7.20
2022-12-20T01:51:59.035Z,7.20
2022-12-20T01:54:30.759Z,7.20
2022-12-20T01:57:11.389Z,7.20
2022-12-20T01:59:42.677Z,7.20
2022-12-20T02:02:13.108Z,7.20
2022-12-20T02:04:58.301Z,7.20
2022-12-20T02:07:28.811Z,7.20
2022-12-20T02:09:59.074Z,7.20
2022-12-20T02:12:42.791Z,7.10
2022-12-20T02:15:26.941Z,7.10
2022-12-20T02:18:07.346Z,7.10
2022-12-20T02:20:58.811Z,7.10
2022-12-20T02:23:46.576Z,7.10
2022-12-20T02:26:36.522Z,7.10
2022-12-20T02:29:26.192Z,7.10
2022-12-20T02:32:02.642Z,7.10
2022-12-20T02:34:33.631Z,7.10
2022-12-20T02:37:04.801Z,7.10
2022-12-20T02:39:34.746Z,7.10
2022-12-20T02:42:06.140Z,7.10
2022-12-20T02:44:55.487Z,7.20
2022-12-20T02:47:28.030Z,7.20
2022-12-20T02:49:57.024Z,7.20
2022-12-20T02:52:28.755Z,7.20
2022-12-20T02:54:56.366Z,7.10
2022-12-20T02:57:41.481Z,7.20
2022-12-20T03:00:13.349Z,7.20
2022-12-20T03:03:01.573Z,7.20
2022-12-20T03:05:32.616Z,7.20
2022-12-20T03:08:00.739Z,7.20
2022-12-20T03:10:28.857Z,7.20
2022-12-20T03:12:56.408Z,7.20
2022-12-20T03:15:45.717Z,7.20
2022-12-20T03:18:13.837Z,7.20
2022-12-20T03:20:42.235Z,7.20
2022-12-20T03:23:10.468Z,7.20
2022-12-20T03:25:38.484Z,7.20
2022-12-20T03:28:09.756Z,7.20
2022-12-20T03:30:38.281Z,7.20
2022-12-20T03:33:09.044Z,7.30
2022-12-20T03:35:37.166Z,7.30
2022-12-20T03:38:25.978Z,7.30
2022-12-20T03:40:53.451Z,7.30
2022-12-20T03:43:22.684Z,7.30
2022-12-20T03:45:50.839Z,7.30
2022-12-20T03:48:19.532Z,7.30
2022-12-20T03:50:48.654Z,7.30
2022-12-20T03:53:29.985Z,7.30
2022-12-20T03:55:58.214Z,7.30
2022-12-20T03:58:27.701Z,7.30
2022-12-20T04:00:57.866Z,7.20
2022-12-20T04:03:33.356Z,7.20
2022-12-20T04:06:15.069Z,7.20
2022-12-20T04:08:42.904Z,7.20
2022-12-20T04:11:17.810Z,7.20
2022-12-20T04:13:49.724Z,7.20
2022-12-20T04:16:20.001Z,7.20
2022-12-20T04:18:48.361Z,7.20
2022-12-20T04:21:17.006Z,7.20
2022-12-20T04:23:49.839Z,7.20
2022-12-20T04:26:18.166Z,7.30
2022-12-20T04:28:46.839Z,7.30
2022-12-20T04:31:18.616Z,7.20
2022-12-20T04:33:44.263Z,7.30
2022-12-20T04:36:13.216Z,7.30
2022-12-20T04:38:42.061Z,7.30
2022-12-20T04:41:09.918Z,7.30
2022-12-20T04:43:40.901Z,7.30
2022-12-20T04:46:09.139Z,7.30
2022-12-20T04:48:57.252Z,7.30
2022-12-20T04:53:56.057Z,7.20
2022-12-20T04:56:29.807Z,7.20
2022-12-20T04:59:05.010Z,7.20
2022-12-20T05:01:36.668Z,7.20
2022-12-20T05:04:05.499Z,7.20
2022-12-20T05:06:38.223Z,7.30
2022-12-20T05:09:07.267Z,7.30
2022-12-20T05:11:36.478Z,7.30
2022-12-20T05:14:06.265Z,7.30
2022-12-20T05:16:35.214Z,7.30
2022-12-20T05:19:04.837Z,7.30
2022-12-20T05:21:52.543Z,7.30
2022-12-20T05:24:38.580Z,7.30
2022-12-20T05:27:14.326Z,7.30
2022-12-20T05:29:42.050Z,7.30
2022-12-20T05:32:11.481Z,7.30
2022-12-20T05:34:41.017Z,7.30
2022-12-20T05:37:08.774Z,7.30
2022-12-20T05:39:37.960Z,7.30
2022-12-20T05:42:07.351Z,7.30
2022-12-20T05:44:35.215Z,7.30
2022-12-20T05:47:02.901Z,7.30
2022-12-20T05:49:32.110Z,7.30
2022-12-20T05:52:02.697Z,7.30
2022-12-20T05:54:30.913Z,7.40
2022-12-20T05:57:07.338Z,7.30
2022-12-20T05:59:39.802Z,7.40
2022-12-20T06:02:11.079Z,7.40
2022-12-20T06:04:39.428Z,7.30
2022-12-20T06:07:09.370Z,7.40
2022-12-20T06:09:37.668Z,7.40
2022-12-20T06:12:08.184Z,7.40
2022-12-20T06:14:36.119Z,7.30
2022-12-20T06:17:04.130Z,7.40
2022-12-20T06:19:32.602Z,7.40
2022-12-20T06:22:01.628Z,7.40
2022-12-20T06:24:34.238Z,7.40
2022-12-20T06:27:04.409Z,7.40
2022-12-20T06:29:31.926Z,7.40
2022-12-20T06:32:02.016Z,7.40
2022-12-20T06:34:29.991Z,7.30
2022-12-20T06:36:57.642Z,7.30
2022-12-20T06:39:27.731Z,7.20
2022-12-20T06:41:59.140Z,7.20
2022-12-20T06:44:27.432Z,7.20
2022-12-20T06:46:55.217Z,7.20
2022-12-20T06:49:23.160Z,7.20
2022-12-20T06:51:51.658Z,7.20
2022-12-20T06:54:24.492Z,7.30
2022-12-20T06:56:52.312Z,7.30
2022-12-20T06:59:20.571Z,7.30
2022-12-20T07:01:48.923Z,7.30
2022-12-20T07:04:18.045Z,7.40
2022-12-20T07:06:46.061Z,7.40
2022-12-20T07:09:13.792Z,7.40
2022-12-20T07:11:43.637Z,7.40
2022-12-20T07:14:11.779Z,7.40
2022-12-20T07:16:41.146Z,7.40
2022-12-20T07:19:12.110Z,7.40
2022-12-20T07:21:43.699Z,7.40
2022-12-20T07:24:12.064Z,7.40
2022-12-20T07:26:40.154Z,7.40
2022-12-20T07:29:15.070Z,7.40
2022-12-20T07:31:38.062Z,7.40
2022-12-20T07:34:06.151Z,7.40
2022-12-20T07:36:34.921Z,7.40
2022-12-20T07:39:03.018Z,7.40
2022-12-20T07:41:34.077Z,7.40
2022-12-20T07:44:03.613Z,7.40
2022-12-20T07:46:31.563Z,7.50
2022-12-20T07:48:59.631Z,7.50
2022-12-20T07:51:31.545Z,7.50
2022-12-20T07:54:03.033Z,7.50
2022-12-20T07:56:37.486Z,7.50
2022-12-20T07:59:11.962Z,7.60
2022-12-20T08:01:41.762Z,7.60
2022-12-20T08:04:19.761Z,7.60
2022-12-20T08:06:52.048Z,7.60
2022-12-20T08:09:36.879Z,7.60
2022-12-20T08:12:05.997Z,7.50
2022-12-20T08:14:34.402Z,7.50
2022-12-20T08:17:04.003Z,7.40
2022-12-20T08:19:32.715Z,7.40
2022-12-20T08:22:00.878Z,7.40
2022-12-20T08:24:28.610Z,7.50
2022-12-20T08:26:56.844Z,7.40
2022-12-20T08:29:24.754Z,7.40
2022-12-20T08:31:52.826Z,7.40
2022-12-20T08:34:21.362Z,7.50
2022-12-20T08:36:49.048Z,7.50
2022-12-20T08:39:16.939Z,7.40
2022-12-20T08:41:45.614Z,7.50
2022-12-20T08:44:14.232Z,7.50
2022-12-20T08:46:42.216Z,7.50
2022-12-20T08:49:10.243Z,7.50
2022-12-20T08:51:38.333Z,7.50
2022-12-20T08:54:06.900Z,7.60
2022-12-20T08:56:35.728Z,7.60
2022-12-20T08:59:03.416Z,7.60
2022-12-20T09:01:33.960Z,7.60
2022-12-20T09:04:01.963Z,7.70
2022-12-20T09:06:30.195Z,7.60
2022-12-20T09:09:17.696Z,7.70
2022-12-20T09:11:45.715Z,7.70
2022-12-20T09:14:14.317Z,7.70
2022-12-20T09:16:41.904Z,7.70
2022-12-20T09:19:12.899Z,7.70
2022-12-20T09:21:40.949Z,7.70
2022-12-20T09:24:11.124Z,7.70
2022-12-20T09:26:42.247Z,7.70
2022-12-20T09:29:12.068Z,7.70
2022-12-20T09:31:40.409Z,7.70
2022-12-20T09:34:10.349Z,7.70
2022-12-20T09:36:38.700Z,7.60
2022-12-20T09:39:06.297Z,7.60
2022-12-20T09:41:38.616Z,7.60
2022-12-20T09:44:10.158Z,7.60
2022-12-20T09:46:39.302Z,7.70
2022-12-20T09:51:59.940Z,7.70
2022-12-20T09:54:40.542Z,7.70
2022-12-20T09:57:19.423Z,7.70
2022-12-20T09:59:49.880Z,7.70
2022-12-20T10:05:17.403Z,7.80
2022-12-20T10:07:51.932Z,7.80
2022-12-20T10:10:45.893Z,7.80
2022-12-20T10:13:51.269Z,7.90
2022-12-20T10:16:34.631Z,7.90
2022-12-20T10:19:21.245Z,8.00
2022-12-20T10:22:11.085Z,8.00
2022-12-20T10:24:41.800Z,7.90
2022-12-20T10:27:16.392Z,8.00
2022-12-20T10:29:45.645Z,8.00
2022-12-20T10:32:17.477Z,8.00
2022-12-20T10:34:58.534Z,8.10
2022-12-20T10:37:26.653Z,8.10
2022-12-20T10:39:54.592Z,8.10
2022-12-20T10:42:26.306Z,8.10
2022-12-20T10:44:59.492Z,8.20
2022-12-20T10:47:37.380Z,8.20
2022-12-20T10:50:11.772Z,8.20
2022-12-20T10:52:39.626Z,8.30
2022-12-20T10:55:28.298Z,8.20
2022-12-20T10:57:55.779Z,8.20
2022-12-20T11:00:31.759Z,8.30
2022-12-20T11:03:21.286Z,8.30
2022-12-20T11:06:01.003Z,8.40
2022-12-20T11:08:40.842Z,8.40
2022-12-20T11:11:24.779Z,8.40
2022-12-20T11:13:52.920Z,8.30
2022-12-20T11:16:27.560Z,8.40
2022-12-20T11:19:11.071Z,8.40
2022-12-20T11:21:45.713Z,8.40
2022-12-20T11:24:32.528Z,8.50
2022-12-20T11:27:19.660Z,8.50
2022-12-20T11:29:57.425Z,8.50
2022-12-20T11:32:31.875Z,8.50
2022-12-20T11:35:19.395Z,8.40
2022-12-20T11:37:56.572Z,8.40
2022-12-20T11:40:31.111Z,8.40
2022-12-20T11:46:07.615Z,8.40
2022-12-20T11:49:12.761Z,8.50
2022-12-20T11:51:48.867Z,8.50
2022-12-20T11:57:09.523Z,8.50
2022-12-20T11:59:47.291Z,8.50
2022-12-20T12:02:19.360Z,8.50
2022-12-20T12:04:51.406Z,8.60
2022-12-20T12:07:25.433Z,8.50
2022-12-20T12:09:59.973Z,8.50
2022-12-20T12:12:41.066Z,8.50
2022-12-20T12:15:18.763Z,8.60
2022-12-20T12:17:50.486Z,8.60
2022-12-20T12:20:25.153Z,8.60
2022-12-20T12:23:06.161Z,8.60
2022-12-20T12:25:34.506Z,8.60
2022-12-20T12:28:04.705Z,8.60
2022-12-20T12:30:36.262Z,8.60
2022-12-20T12:33:19.094Z,8.70
2022-12-20T12:36:12.971Z,8.70
2022-12-20T12:38:48.030Z,8.70
2022-12-20T12:41:36.952Z,8.70
2022-12-20T12:44:25.760Z,8.70
2022-12-20T12:47:03.105Z,8.70
2022-12-20T12:49:35.277Z,8.80
2022-12-20T12:52:05.606Z,8.80
2022-12-20T12:54:45.785Z,8.80
2022-12-20T12:57:17.200Z,8.80
2022-12-20T12:59:50.411Z,8.80
2022-12-20T13:02:22.227Z,8.80
2022-12-20T13:05:06.024Z,8.90
2022-12-20T13:07:37.763Z,8.80
2022-12-20T13:10:26.515Z,8.90
2022-12-20T13:12:59.962Z,8.90
2022-12-20T13:15:33.487Z,8.90
2022-12-20T13:18:04.213Z,8.80
2022-12-20T13:20:34.458Z,8.70
2022-12-20T13:23:14.075Z,8.70
2022-12-20T13:25:48.441Z,8.80
2022-12-20T13:28:39.223Z,8.80
2022-12-20T13:31:11.745Z,8.70
2022-12-20T13:33:47.724Z,8.80
2022-12-20T13:36:35.043Z,8.80
2022-12-20T13:39:06.730Z,8.80
2022-12-20T13:41:41.344Z,8.80
2022-12-20T13:44:18.749Z,8.90
2022-12-20T13:46:50.624Z,8.80
2022-12-20T13:49:28.316Z,8.80
2022-12-20T13:52:18.434Z,8.70
2022-12-20T13:54:52.970Z,8.70
2022-12-20T13:57:28.692Z,8.60
2022-12-20T14:00:05.655Z,8.60
2022-12-20T14:02:32.695Z,8.50
2022-12-20T14:05:10.399Z,8.50
2022-12-20T14:07:39.921Z,8.50
2022-12-20T14:10:21.115Z,8.60
2022-12-20T14:13:02.408Z,8.60
2022-12-20T14:15:32.830Z,8.60
2022-12-20T14:18:14.953Z,8.60
2022-12-20T14:20:43.360Z,8.60
2022-12-20T14:23:14.771Z,8.60
2022-12-20T14:26:07.391Z,8.50
2022-12-20T14:28:50.842Z,8.60
2022-12-20T14:31:52.652Z,8.60
2022-12-20T14:34:29.733Z,8.60
2022-12-20T14:37:20.974Z,8.60
2022-12-20T14:39:58.498Z,8.60
2022-12-20T14:42:38.265Z,8.60
2022-12-20T14:45:16.542Z,8.60
2022-12-20T14:47:53.814Z,8.60
2022-12-20T14:50:31.489Z,8.70
2022-12-20T14:53:00.290Z,8.60
2022-12-20T14:55:40.041Z,8.60
2022-12-20T14:58:31.433Z,8.60
2022-12-20T15:01:03.194Z,8.60
2022-12-20T15:03:31.272Z,8.70
2022-12-20T15:06:00.604Z,8.60
2022-12-20T15:08:36.442Z,8.60
2022-12-20T15:11:12.169Z,8.60
2022-12-20T15:13:46.959Z,8.60
2022-12-20T15:16:23.996Z,8.70
2022-12-20T15:18:54.951Z,8.60
2022-12-20T15:21:34.309Z,8.60
2022-12-20T15:24:06.276Z,8.60
2022-12-20T15:26:34.113Z,8.60
2022-12-20T15:29:02.197Z,8.60
2022-12-20T15:31:34.656Z,8.60
2022-12-20T15:34:05.179Z,8.50
2022-12-20T15:36:53.682Z,8.40
2022-12-20T15:39:22.269Z,8.50
2022-12-20T15:41:50.779Z,8.50
2022-12-20T15:44:22.017Z,8.40
2022-12-20T15:46:50.292Z,8.40
2022-12-20T15:49:21.647Z,8.40
2022-12-20T15:51:51.375Z,8.40
2022-12-20T15:54:34.113Z,8.40
2022-12-20T15:57:05.336Z,8.40
2022-12-20T16:02:17.597Z,8.40
2022-12-20T16:04:45.204Z,8.40
2022-12-20T16:07:13.690Z,8.40
2022-12-20T16:09:41.385Z,8.50
2022-12-20T16:12:19.051Z,8.50
2022-12-20T16:14:46.651Z,8.50
2022-12-20T16:17:16.455Z,8.40
2022-12-20T16:19:44.639Z,8.40
2022-12-20T16:22:34.868Z,8.40
2022-12-20T16:25:02.963Z,8.40
2022-12-20T16:27:30.951Z,8.40
2022-12-20T16:29:58.924Z,8.40
2022-12-20T16:32:26.986Z,8.30
2022-12-20T16:34:55.893Z,8.30
2022-12-20T16:37:23.953Z,8.30
2022-12-20T16:39:51.852Z,8.30
2022-12-20T16:42:23.697Z,8.40
2022-12-20T16:44:52.948Z,8.40
2022-12-20T16:47:21.123Z,8.40
2022-12-20T16:49:52.999Z,8.40
2022-12-20T16:52:19.558Z,8.50
2022-12-20T16:55:00.451Z,8.50
2022-12-20T16:57:28.285Z,8.50
2022-12-20T17:00:06.358Z,8.50
2022-12-20T17:02:35.722Z,8.50
2022-12-20T17:05:04.638Z,8.50
2022-12-20T17:07:39.560Z,8.40
2022-12-20T17:10:14.327Z,8.40
2022-12-20T17:12:43.060Z,8.40
2022-12-20T17:15:28.594Z,8.40
2022-12-20T17:17:56.797Z,8.40
2022-12-20T17:20:25.552Z,8.40
2022-12-20T17:22:56.404Z,8.40
2022-12-20T17:25:33.397Z,8.30
2022-12-20T17:28:06.707Z,8.30
2022-12-20T17:30:34.389Z,8.30
2022-12-20T17:33:02.642Z,8.30
2022-12-20T17:35:33.156Z,8.30
2022-12-20T17:38:02.182Z,8.30
2022-12-20T17:40:29.818Z,8.30
2022-12-20T17:43:01.087Z,8.30
2022-12-20T17:45:31.297Z,8.30
2022-12-20T17:48:15.454Z,8.40
2022-12-20T17:50:46.713Z,8.40
2022-12-20T17:53:14.636Z,8.40
2022-12-20T17:55:43.082Z,8.40
2022-12-20T17:58:21.241Z,8.40
2022-12-20T18:00:49.056Z,8.40
2022-12-20T18:03:53.367Z,8.40
2022-12-20T18:05:51.362Z,8.40
2022-12-20T18:08:19.301Z,8.40
2022-12-20T18:10:47.858Z,8.40
2022-12-20T18:13:15.705Z,8.40
2022-12-20T18:15:44.514Z,8.40
2022-12-20T18:18:12.618Z,8.30
2022-12-20T18:20:40.569Z,8.30
2022-12-20T18:23:10.838Z,8.30
2022-12-20T18:26:06.617Z,8.40
2022-12-20T18:28:35.155Z,8.40
2022-12-20T18:31:07.894Z,8.40
2022-12-20T18:33:38.850Z,8.40
2022-12-20T18:36:17.414Z,8.50
2022-12-20T18:38:47.150Z,8.40
2022-12-20T18:41:18.773Z,8.50
2022-12-20T18:43:47.403Z,8.50
2022-12-20T18:46:18.613Z,8.50
2022-12-20T18:48:47.247Z,8.50
2022-12-20T18:51:18.958Z,8.50
2022-12-20T18:53:48.331Z,8.50
2022-12-20T18:56:37.753Z,8.50
2022-12-20T18:59:11.924Z,8.50
2022-12-20T19:01:40.107Z,8.50
2022-12-20T19:04:08.659Z,8.50
2022-12-20T19:06:47.118Z,8.40
2022-12-20T19:09:18.322Z,8.40
2022-12-20T19:11:46.868Z,8.40
2022-12-20T19:14:16.795Z,8.50
2022-12-20T19:16:44.422Z,8.50
2022-12-20T19:19:19.198Z,8.50
2022-12-20T19:21:54.833Z,8.50
2022-12-20T19:24:22.519Z,8.50
2022-12-20T19:27:13.721Z,8.40
2022-12-20T19:29:42.131Z,8.40
2022-12-20T19:32:09.998Z,8.40
2022-12-20T19:34:38.389Z,8.40
2022-12-20T19:37:09.651Z,8.40
2022-12-20T19:39:37.723Z,8.40
2022-12-20T19:42:23.704Z,8.40
2022-12-20T19:44:37.209Z,8.40
2022-12-20T19:47:05.439Z,8.40
2022-12-20T19:49:33.384Z,8.40
2022-12-20T19:52:00.878Z,8.40
2022-12-20T19:54:31.800Z,8.40
2022-12-20T19:56:59.573Z,8.40
2022-12-20T19:59:27.670Z,8.40
2022-12-20T20:01:56.752Z,8.40
2022-12-20T20:04:24.658Z,8.40
2022-12-20T20:06:52.655Z,8.30
2022-12-20T20:09:20.484Z,8.30
2022-12-20T20:11:50.232Z,8.30
2022-12-20T20:14:17.922Z,8.30
2022-12-20T20:16:45.816Z,8.30
2022-12-20T20:19:13.773Z,8.30
2022-12-20T20:21:45.427Z,8.30
2022-12-20T20:24:12.995Z,8.30
2022-12-20T20:26:41.006Z,8.30
2022-12-20T20:29:10.515Z,8.30
2022-12-20T20:31:38.662Z,8.40
2022-12-20T20:34:06.540Z,8.40
2022-12-20T20:36:34.517Z,8.40
2022-12-20T20:39:02.284Z,8.40
2022-12-20T20:41:31.171Z,8.40
2022-12-20T20:43:59.019Z,8.40
2022-12-20T20:46:27.189Z,8.40
2022-12-20T20:48:55.267Z,8.40
2022-12-20T20:51:23.685Z,8.30
2022-12-20T20:53:52.389Z,8.30
2022-12-20T20:56:20.485Z,8.30
2022-12-20T20:58:50.866Z,8.30
2022-12-20T21:01:19.155Z,8.30
2022-12-20T21:03:47.317Z,8.40
2022-12-20T21:06:39.275Z,8.30
2022-12-20T21:08:48.559Z,8.40
2022-12-20T21:11:17.113Z,8.40
2022-12-20T21:13:45.004Z,8.40
2022-12-20T21:16:17.019Z,8.40
2022-12-20T21:18:44.708Z,8.40
2022-12-20T21:21:13.783Z,8.40
2022-12-20T21:23:45.290Z,8.30
2022-12-20T21:26:13.970Z,8.30
2022-12-20T21:28:42.448Z,8.30
2022-12-20T21:31:19.027Z,8.30
2022-12-20T21:34:00.418Z,8.30
2022-12-20T21:36:28.439Z,8.30
2022-12-20T21:38:58.095Z,8.30
2022-12-20T21:41:28.083Z,8.30
2022-12-20T21:43:58.012Z,8.30
2022-12-20T21:46:29.011Z,8.30
2022-12-20T21:48:57.120Z,8.40
2022-12-20T21:51:27.206Z,8.40
2022-12-20T21:53:58.064Z,8.40
2022-12-20T21:56:28.449Z,8.40
2022-12-20T21:58:56.885Z,8.30
2022-12-20T22:01:27.365Z,8.30
2022-12-20T22:03:58.478Z,8.40
2022-12-20T22:06:28.608Z,8.40
2022-12-20T22:09:01.641Z,8.40
2022-12-20T22:11:43.356Z,8.40
2022-12-20T22:14:12.698Z,8.40
2022-12-20T22:16:40.516Z,8.40
2022-12-20T22:19:09.424Z,8.40
2022-12-20T22:21:38.318Z,8.40
2022-12-20T22:24:06.293Z,8.30
2022-12-20T22:26:37.770Z,8.30
2022-12-20T22:29:06.505Z,8.30
2022-12-20T22:31:36.917Z,8.30
2022-12-20T22:34:06.340Z,8.30
2022-12-20T22:36:34.617Z,8.30
2022-12-20T22:39:03.824Z,8.30
2022-12-20T22:41:35.278Z,8.30
2022-12-20T22:44:06.296Z,8.30
2022-12-20T22:46:43.029Z,8.30
2022-12-20T22:49:18.894Z,8.30
2022-12-20T22:51:59.128Z,8.30
2022-12-20T22:54:16.265Z,8.40
2022-12-20T22:56:45.080Z,8.30
2022-12-20T22:59:13.417Z,8.30
2022-12-20T23:01:41.753Z,8.30
2022-12-20T23:04:09.527Z,8.40
2022-12-20T23:06:37.606Z,8.40
2022-12-20T23:09:07.576Z,8.40
2022-12-20T23:11:54.316Z,8.40
2022-12-20T23:14:44.162Z,8.40
2022-12-20T23:17:11.852Z,8.40
2022-12-20T23:19:58.815Z,8.40
2022-12-20T23:22:38.885Z,8.30
2022-12-20T23:25:13.046Z,8.40
2022-12-20T23:27:43.093Z,8.30
2022-12-20T23:30:14.367Z,8.30
2022-12-20T23:32:45.553Z,8.30
2022-12-20T23:35:15.828Z,8.40
2022-12-20T23:37:44.140Z,8.40
2022-12-20T23:40:15.946Z,8.30
2022-12-20T23:42:44.497Z,8.30
2022-12-20T23:45:15.310Z,8.30
2022-12-20T23:47:43.259Z,8.30
2022-12-20T23:50:11.641Z,8.30
2022-12-20T23:52:39.345Z,8.30
2022-12-20T23:55:11.021Z,8.30
2022-12-20T23:57:38.616Z,8.40
